Abingdon, Iowa
Current Conditions -  °F | °C
As of 6:55 PM on Wednesday 17 Dec 2014 (Local Time) from KFFL Reporting Station
Clear Clear  
Wind Chill: -6°   Ceiling: Unl
Heat Index: -6°   Visibility: 10mi
Dew Point: -8°   Wind: 3mph
Humidity: 86%   Direction: 350°N
Pressure: 30.3"   Gusts: NA
Location:  40.9883°N, 92.1215°W
Report Text: KFFL 180055Z AUTO 35003KT 10SM CLR M06/M08 A3030 RMK AO2
Loading
Personal Weather Stations






























Interactive Weather Map New forecast layout! Learn more

10-Day Weather Forecast

Advertisements
Track Severe Weather on mobile